sensor_id;sensor_type;location;lat;lon;timestamp;P1;durP1;ratioP1;P2;durP2;ratioP2
11183;SDS011;5648;43.628;22.684;2022-10-24T00:00:49;3.17;;;2.10;;
11183;SDS011;5648;43.628;22.684;2022-10-24T00:03:14;5.53;;;2.53;;
11183;SDS011;5648;43.628;22.684;2022-10-24T00:05:40;5.55;;;2.50;;
11183;SDS011;5648;43.628;22.684;2022-10-24T00:08:10;5.75;;;2.40;;
11183;SDS011;5648;43.628;22.684;2022-10-24T00:10:36;2.72;;;2.33;;
11183;SDS011;5648;43.628;22.684;2022-10-24T00:13:02;2.75;;;1.90;;
11183;SDS011;5648;43.628;22.684;2022-10-24T00:15:28;4.68;;;2.40;;
11183;SDS011;5648;43.628;22.684;2022-10-24T00:17:53;4.68;;;2.22;;
11183;SDS011;5648;43.628;22.684;2022-10-24T00:20:19;3.50;;;2.20;;
11183;SDS011;5648;43.628;22.684;2022-10-24T00:22:44;3.85;;;2.35;;
11183;SDS011;5648;43.628;22.684;2022-10-24T00:25:10;3.30;;;2.30;;
11183;SDS011;5648;43.628;22.684;2022-10-24T00:27:35;5.38;;;2.80;;
11183;SDS011;5648;43.628;22.684;2022-10-24T00:30:02;6.53;;;3.08;;
11183;SDS011;5648;43.628;22.684;2022-10-24T00:32:28;3.15;;;2.42;;
11183;SDS011;5648;43.628;22.684;2022-10-24T00:34:54;5.03;;;3.00;;
11183;SDS011;5648;43.628;22.684;2022-10-24T00:37:19;3.00;;;2.70;;
11183;SDS011;5648;43.628;22.684;2022-10-24T00:39:45;4.13;;;2.60;;
11183;SDS011;5648;43.628;22.684;2022-10-24T00:42:10;3.88;;;2.65;;
11183;SDS011;5648;43.628;22.684;2022-10-24T00:44:37;4.18;;;2.72;;
11183;SDS011;5648;43.628;22.684;2022-10-24T00:47:18;3.85;;;3.00;;
11183;SDS011;5648;43.628;22.684;2022-10-24T00:49:50;3.58;;;2.88;;
11183;SDS011;5648;43.628;22.684;2022-10-24T00:52:27;9.02;;;3.20;;
11183;SDS011;5648;43.628;22.684;2022-10-24T00:54:55;5.70;;;3.28;;
11183;SDS011;5648;43.628;22.684;2022-10-24T01:00:20;6.22;;;3.17;;
11183;SDS011;5648;43.628;22.684;2022-10-24T01:02:47;4.90;;;3.33;;
11183;SDS011;5648;43.628;22.684;2022-10-24T01:05:13;3.63;;;2.78;;
11183;SDS011;5648;43.628;22.684;2022-10-24T01:10:19;6.25;;;2.80;;
11183;SDS011;5648;43.628;22.684;2022-10-24T01:15:50;4.47;;;2.40;;
11183;SDS011;5648;43.628;22.684;2022-10-24T01:28:47;4.55;;;3.10;;
11183;SDS011;5648;43.628;22.684;2022-10-24T01:31:44;5.05;;;3.58;;
11183;SDS011;5648;43.628;22.684;2022-10-24T01:34:27;7.20;;;3.33;;
11183;SDS011;5648;43.628;22.684;2022-10-24T01:37:00;6.97;;;3.55;;
11183;SDS011;5648;43.628;22.684;2022-10-24T01:39:31;4.45;;;3.17;;
11183;SDS011;5648;43.628;22.684;2022-10-24T01:42:01;6.75;;;3.38;;
11183;SDS011;5648;43.628;22.684;2022-10-24T01:44:29;4.78;;;3.03;;
11183;SDS011;5648;43.628;22.684;2022-10-24T01:47:02;5.72;;;2.95;;
11183;SDS011;5648;43.628;22.684;2022-10-24T01:49:34;4.32;;;2.88;;
11183;SDS011;5648;43.628;22.684;2022-10-24T01:52:03;7.32;;;2.70;;
11183;SDS011;5648;43.628;22.684;2022-10-24T01:54:32;6.50;;;2.60;;
11183;SDS011;5648;43.628;22.684;2022-10-24T01:56:58;4.18;;;2.65;;
11183;SDS011;5648;43.628;22.684;2022-10-24T02:02:00;5.53;;;2.90;;
11183;SDS011;5648;43.628;22.684;2022-10-24T02:05:03;7.13;;;3.08;;
11183;SDS011;5648;43.628;22.684;2022-10-24T02:07:39;8.25;;;2.90;;
11183;SDS011;5648;43.628;22.684;2022-10-24T02:10:10;4.28;;;2.38;;
11183;SDS011;5648;43.628;22.684;2022-10-24T02:12:41;6.63;;;2.85;;
11183;SDS011;5648;43.628;22.684;2022-10-24T02:15:17;6.78;;;3.22;;
11183;SDS011;5648;43.628;22.684;2022-10-24T02:17:48;4.50;;;2.95;;
11183;SDS011;5648;43.628;22.684;2022-10-24T02:20:15;4.28;;;2.83;;
11183;SDS011;5648;43.628;22.684;2022-10-24T02:22:45;6.65;;;3.22;;
11183;SDS011;5648;43.628;22.684;2022-10-24T02:25:35;8.57;;;2.95;;
11183;SDS011;5648;43.628;22.684;2022-10-24T02:28:06;5.88;;;2.92;;
11183;SDS011;5648;43.628;22.684;2022-10-24T02:30:37;6.30;;;3.15;;
11183;SDS011;5648;43.628;22.684;2022-10-24T02:33:06;4.03;;;3.28;;
11183;SDS011;5648;43.628;22.684;2022-10-24T02:35:33;4.25;;;2.92;;
11183;SDS011;5648;43.628;22.684;2022-10-24T02:40:37;4.22;;;2.80;;
11183;SDS011;5648;43.628;22.684;2022-10-24T02:43:05;6.70;;;2.80;;
11183;SDS011;5648;43.628;22.684;2022-10-24T02:45:32;3.90;;;2.40;;
11183;SDS011;5648;43.628;22.684;2022-10-24T02:48:02;3.35;;;1.90;;
11183;SDS011;5648;43.628;22.684;2022-10-24T02:50:30;4.45;;;2.25;;
11183;SDS011;5648;43.628;22.684;2022-10-24T02:52:56;7.35;;;2.60;;
11183;SDS011;5648;43.628;22.684;2022-10-24T02:55:22;2.65;;;2.40;;
11183;SDS011;5648;43.628;22.684;2022-10-24T02:57:47;2.58;;;2.17;;
11183;SDS011;5648;43.628;22.684;2022-10-24T03:00:13;4.00;;;2.40;;
11183;SDS011;5648;43.628;22.684;2022-10-24T03:02:39;3.53;;;2.30;;
11183;SDS011;5648;43.628;22.684;2022-10-24T03:05:05;3.72;;;2.25;;
11183;SDS011;5648;43.628;22.684;2022-10-24T03:07:30;4.22;;;2.53;;
11183;SDS011;5648;43.628;22.684;2022-10-24T03:09:56;3.97;;;2.70;;
11183;SDS011;5648;43.628;22.684;2022-10-24T03:12:21;6.75;;;2.53;;
11183;SDS011;5648;43.628;22.684;2022-10-24T03:14:48;3.00;;;2.60;;
11183;SDS011;5648;43.628;22.684;2022-10-24T03:17:13;6.65;;;2.75;;
11183;SDS011;5648;43.628;22.684;2022-10-24T03:19:39;4.00;;;2.58;;
11183;SDS011;5648;43.628;22.684;2022-10-24T03:22:04;2.85;;;2.38;;
11183;SDS011;5648;43.628;22.684;2022-10-24T03:24:30;4.38;;;2.53;;
11183;SDS011;5648;43.628;22.684;2022-10-24T03:26:55;4.35;;;2.30;;
11183;SDS011;5648;43.628;22.684;2022-10-24T03:29:21;4.53;;;2.33;;
11183;SDS011;5648;43.628;22.684;2022-10-24T03:31:46;3.10;;;2.30;;
11183;SDS011;5648;43.628;22.684;2022-10-24T03:34:12;4.80;;;2.42;;
11183;SDS011;5648;43.628;22.684;2022-10-24T03:36:38;6.85;;;2.30;;
11183;SDS011;5648;43.628;22.684;2022-10-24T03:39:03;3.08;;;2.30;;
11183;SDS011;5648;43.628;22.684;2022-10-24T03:41:29;4.90;;;2.53;;
11183;SDS011;5648;43.628;22.684;2022-10-24T03:43:54;3.08;;;1.90;;
11183;SDS011;5648;43.628;22.684;2022-10-24T03:46:20;4.07;;;2.60;;
11183;SDS011;5648;43.628;22.684;2022-10-24T03:48:45;5.40;;;2.40;;
11183;SDS011;5648;43.628;22.684;2022-10-24T03:51:11;2.55;;;2.25;;
11183;SDS011;5648;43.628;22.684;2022-10-24T03:53:36;3.92;;;2.65;;
11183;SDS011;5648;43.628;22.684;2022-10-24T03:56:02;4.82;;;2.60;;
11183;SDS011;5648;43.628;22.684;2022-10-24T03:58:28;2.35;;;1.90;;
11183;SDS011;5648;43.628;22.684;2022-10-24T04:00:54;2.75;;;1.75;;
11183;SDS011;5648;43.628;22.684;2022-10-24T04:03:22;2.72;;;1.83;;
11183;SDS011;5648;43.628;22.684;2022-10-24T04:05:48;3.75;;;1.90;;
11183;SDS011;5648;43.628;22.684;2022-10-24T04:08:13;1.98;;;1.38;;
11183;SDS011;5648;43.628;22.684;2022-10-24T04:10:39;1.70;;;1.60;;
11183;SDS011;5648;43.628;22.684;2022-10-24T04:13:05;4.72;;;2.25;;
11183;SDS011;5648;43.628;22.684;2022-10-24T04:15:30;4.93;;;2.28;;
11183;SDS011;5648;43.628;22.684;2022-10-24T04:17:56;2.17;;;1.80;;
11183;SDS011;5648;43.628;22.684;2022-10-24T04:20:21;4.18;;;2.20;;
11183;SDS011;5648;43.628;22.684;2022-10-24T04:22:47;3.30;;;2.10;;
11183;SDS011;5648;43.628;22.684;2022-10-24T04:25:14;2.65;;;2.13;;
11183;SDS011;5648;43.628;22.684;2022-10-24T04:27:40;4.28;;;2.38;;
11183;SDS011;5648;43.628;22.684;2022-10-24T04:30:07;4.15;;;2.33;;
11183;SDS011;5648;43.628;22.684;2022-10-24T04:32:33;6.15;;;2.38;;
11183;SDS011;5648;43.628;22.684;2022-10-24T04:35:00;3.60;;;2.40;;
11183;SDS011;5648;43.628;22.684;2022-10-24T04:37:26;2.10;;;1.90;;
11183;SDS011;5648;43.628;22.684;2022-10-24T04:39:51;5.30;;;2.20;;
11183;SDS011;5648;43.628;22.684;2022-10-24T04:42:19;4.50;;;2.05;;
11183;SDS011;5648;43.628;22.684;2022-10-24T04:44:47;3.72;;;2.10;;
11183;SDS011;5648;43.628;22.684;2022-10-24T04:47:13;10.10;;;2.75;;
11183;SDS011;5648;43.628;22.684;2022-10-24T04:49:38;5.28;;;3.58;;
11183;SDS011;5648;43.628;22.684;2022-10-24T04:52:04;8.02;;;3.33;;
11183;SDS011;5648;43.628;22.684;2022-10-24T04:54:30;6.65;;;4.22;;
11183;SDS011;5648;43.628;22.684;2022-10-24T04:56:55;7.32;;;4.03;;
11183;SDS011;5648;43.628;22.684;2022-10-24T04:59:21;10.90;;;4.65;;
11183;SDS011;5648;43.628;22.684;2022-10-24T05:01:46;4.78;;;3.67;;
11183;SDS011;5648;43.628;22.684;2022-10-24T05:04:12;6.22;;;3.63;;
11183;SDS011;5648;43.628;22.684;2022-10-24T05:06:37;7.63;;;3.63;;
11183;SDS011;5648;43.628;22.684;2022-10-24T05:09:03;8.48;;;3.90;;
11183;SDS011;5648;43.628;22.684;2022-10-24T05:11:29;5.15;;;3.10;;
11183;SDS011;5648;43.628;22.684;2022-10-24T05:13:55;6.43;;;3.50;;
11183;SDS011;5648;43.628;22.684;2022-10-24T05:16:21;6.65;;;3.97;;
11183;SDS011;5648;43.628;22.684;2022-10-24T05:18:47;4.97;;;3.08;;
11183;SDS011;5648;43.628;22.684;2022-10-24T05:21:13;4.10;;;3.03;;
11183;SDS011;5648;43.628;22.684;2022-10-24T05:23:38;5.25;;;3.13;;
11183;SDS011;5648;43.628;22.684;2022-10-24T05:26:04;5.20;;;3.13;;
11183;SDS011;5648;43.628;22.684;2022-10-24T05:28:29;9.40;;;3.22;;
11183;SDS011;5648;43.628;22.684;2022-10-24T05:30:55;6.57;;;3.15;;
11183;SDS011;5648;43.628;22.684;2022-10-24T05:33:20;6.57;;;3.13;;
11183;SDS011;5648;43.628;22.684;2022-10-24T05:35:48;8.05;;;3.25;;
11183;SDS011;5648;43.628;22.684;2022-10-24T05:38:14;4.75;;;2.83;;
11183;SDS011;5648;43.628;22.684;2022-10-24T05:40:39;10.80;;;3.17;;
11183;SDS011;5648;43.628;22.684;2022-10-24T05:43:05;9.43;;;3.17;;
11183;SDS011;5648;43.628;22.684;2022-10-24T05:45:30;10.63;;;3.50;;
11183;SDS011;5648;43.628;22.684;2022-10-24T05:47:56;5.97;;;3.47;;
11183;SDS011;5648;43.628;22.684;2022-10-24T05:50:21;6.25;;;3.30;;
11183;SDS011;5648;43.628;22.684;2022-10-24T05:52:47;7.97;;;3.95;;
11183;SDS011;5648;43.628;22.684;2022-10-24T05:55:12;8.05;;;3.25;;
11183;SDS011;5648;43.628;22.684;2022-10-24T05:57:38;7.35;;;3.60;;
11183;SDS011;5648;43.628;22.684;2022-10-24T06:00:05;6.78;;;3.30;;
11183;SDS011;5648;43.628;22.684;2022-10-24T06:02:32;9.85;;;3.13;;
11183;SDS011;5648;43.628;22.684;2022-10-24T06:04:57;7.68;;;3.28;;
11183;SDS011;5648;43.628;22.684;2022-10-24T06:07:23;4.97;;;3.33;;
11183;SDS011;5648;43.628;22.684;2022-10-24T06:09:48;9.50;;;3.55;;
11183;SDS011;5648;43.628;22.684;2022-10-24T06:12:14;6.35;;;2.92;;
11183;SDS011;5648;43.628;22.684;2022-10-24T06:14:39;4.32;;;3.38;;
11183;SDS011;5648;43.628;22.684;2022-10-24T06:17:05;3.67;;;2.67;;
11183;SDS011;5648;43.628;22.684;2022-10-24T06:19:33;6.78;;;3.50;;
11183;SDS011;5648;43.628;22.684;2022-10-24T06:22:00;4.65;;;3.65;;
11183;SDS011;5648;43.628;22.684;2022-10-24T06:24:26;9.90;;;3.05;;
11183;SDS011;5648;43.628;22.684;2022-10-24T06:26:51;3.22;;;2.85;;
11183;SDS011;5648;43.628;22.684;2022-10-24T06:29:17;4.45;;;2.65;;
11183;SDS011;5648;43.628;22.684;2022-10-24T06:31:42;3.70;;;2.78;;
11183;SDS011;5648;43.628;22.684;2022-10-24T06:34:08;8.27;;;2.47;;
11183;SDS011;5648;43.628;22.684;2022-10-24T06:36:33;5.60;;;2.33;;
11183;SDS011;5648;43.628;22.684;2022-10-24T06:39:00;7.07;;;2.83;;
11183;SDS011;5648;43.628;22.684;2022-10-24T06:41:26;5.18;;;2.47;;
11183;SDS011;5648;43.628;22.684;2022-10-24T06:43:51;7.72;;;3.42;;
11183;SDS011;5648;43.628;22.684;2022-10-24T06:46:17;10.18;;;3.10;;
11183;SDS011;5648;43.628;22.684;2022-10-24T06:48:47;8.77;;;3.10;;
11183;SDS011;5648;43.628;22.684;2022-10-24T06:51:22;3.58;;;2.70;;
11183;SDS011;5648;43.628;22.684;2022-10-24T06:53:47;6.15;;;2.20;;
11183;SDS011;5648;43.628;22.684;2022-10-24T06:56:13;4.75;;;2.17;;
11183;SDS011;5648;43.628;22.684;2022-10-24T06:58:41;5.03;;;2.45;;
11183;SDS011;5648;43.628;22.684;2022-10-24T07:01:17;6.60;;;2.33;;
11183;SDS011;5648;43.628;22.684;2022-10-24T07:03:44;2.58;;;2.35;;
11183;SDS011;5648;43.628;22.684;2022-10-24T07:06:14;8.38;;;2.50;;
11183;SDS011;5648;43.628;22.684;2022-10-24T07:08:41;9.73;;;3.30;;
11183;SDS011;5648;43.628;22.684;2022-10-24T07:11:07;7.25;;;2.65;;
11183;SDS011;5648;43.628;22.684;2022-10-24T07:13:32;5.50;;;2.40;;
11183;SDS011;5648;43.628;22.684;2022-10-24T07:15:58;7.63;;;2.97;;
11183;SDS011;5648;43.628;22.684;2022-10-24T07:18:24;8.02;;;2.80;;
11183;SDS011;5648;43.628;22.684;2022-10-24T07:20:49;17.27;;;3.20;;
11183;SDS011;5648;43.628;22.684;2022-10-24T07:23:15;6.38;;;2.65;;
11183;SDS011;5648;43.628;22.684;2022-10-24T07:25:41;11.65;;;3.00;;
11183;SDS011;5648;43.628;22.684;2022-10-24T07:28:07;7.90;;;2.72;;
11183;SDS011;5648;43.628;22.684;2022-10-24T07:30:33;7.50;;;3.05;;
11183;SDS011;5648;43.628;22.684;2022-10-24T07:32:59;9.07;;;2.85;;
11183;SDS011;5648;43.628;22.684;2022-10-24T07:35:24;4.50;;;2.60;;
11183;SDS011;5648;43.628;22.684;2022-10-24T07:37:50;8.55;;;4.70;;
11183;SDS011;5648;43.628;22.684;2022-10-24T07:40:17;16.48;;;7.57;;
11183;SDS011;5648;43.628;22.684;2022-10-24T07:42:43;13.70;;;7.03;;
11183;SDS011;5648;43.628;22.684;2022-10-24T07:45:09;11.10;;;6.18;;
11183;SDS011;5648;43.628;22.684;2022-10-24T07:47:34;12.88;;;6.28;;
11183;SDS011;5648;43.628;22.684;2022-10-24T07:50:00;7.20;;;5.82;;
11183;SDS011;5648;43.628;22.684;2022-10-24T07:52:25;13.88;;;5.68;;
11183;SDS011;5648;43.628;22.684;2022-10-24T07:54:51;9.15;;;5.13;;
11183;SDS011;5648;43.628;22.684;2022-10-24T07:57:18;9.13;;;4.45;;
11183;SDS011;5648;43.628;22.684;2022-10-24T07:59:44;8.00;;;4.63;;
11183;SDS011;5648;43.628;22.684;2022-10-24T08:02:13;6.05;;;3.78;;
11183;SDS011;5648;43.628;22.684;2022-10-24T08:04:40;6.25;;;3.78;;
11183;SDS011;5648;43.628;22.684;2022-10-24T08:07:05;16.33;;;4.35;;
11183;SDS011;5648;43.628;22.684;2022-10-24T08:09:41;5.70;;;3.50;;
11183;SDS011;5648;43.628;22.684;2022-10-24T08:12:08;7.13;;;3.75;;
11183;SDS011;5648;43.628;22.684;2022-10-24T08:14:35;8.85;;;3.83;;
11183;SDS011;5648;43.628;22.684;2022-10-24T08:17:02;7.28;;;4.40;;
11183;SDS011;5648;43.628;22.684;2022-10-24T08:19:28;12.90;;;4.53;;
11183;SDS011;5648;43.628;22.684;2022-10-24T08:21:54;8.65;;;4.53;;
11183;SDS011;5648;43.628;22.684;2022-10-24T08:24:20;7.45;;;4.32;;
11183;SDS011;5648;43.628;22.684;2022-10-24T08:26:46;9.52;;;4.43;;
11183;SDS011;5648;43.628;22.684;2022-10-24T08:29:11;11.98;;;4.30;;
11183;SDS011;5648;43.628;22.684;2022-10-24T08:31:38;9.30;;;3.80;;
11183;SDS011;5648;43.628;22.684;2022-10-24T08:34:04;4.28;;;3.30;;
11183;SDS011;5648;43.628;22.684;2022-10-24T08:36:31;8.30;;;3.55;;
11183;SDS011;5648;43.628;22.684;2022-10-24T08:38:59;5.25;;;3.25;;
11183;SDS011;5648;43.628;22.684;2022-10-24T08:43:57;7.38;;;2.85;;
11183;SDS011;5648;43.628;22.684;2022-10-24T08:49:25;6.22;;;3.33;;
11183;SDS011;5648;43.628;22.684;2022-10-24T08:52:00;7.22;;;4.15;;
11183;SDS011;5648;43.628;22.684;2022-10-24T08:54:35;11.68;;;5.07;;
11183;SDS011;5648;43.628;22.684;2022-10-24T08:57:04;6.68;;;3.38;;
11183;SDS011;5648;43.628;22.684;2022-10-24T08:59:31;6.38;;;3.58;;
11183;SDS011;5648;43.628;22.684;2022-10-24T09:02:01;5.32;;;2.80;;
11183;SDS011;5648;43.628;22.684;2022-10-24T09:04:35;10.27;;;3.42;;
11183;SDS011;5648;43.628;22.684;2022-10-24T09:07:06;7.95;;;2.85;;
11183;SDS011;5648;43.628;22.684;2022-10-24T09:09:40;8.63;;;3.03;;
11183;SDS011;5648;43.628;22.684;2022-10-24T09:12:11;8.05;;;2.85;;
11183;SDS011;5648;43.628;22.684;2022-10-24T09:14:40;3.75;;;2.42;;
11183;SDS011;5648;43.628;22.684;2022-10-24T09:17:16;5.88;;;2.55;;
11183;SDS011;5648;43.628;22.684;2022-10-24T09:19:45;5.07;;;3.10;;
11183;SDS011;5648;43.628;22.684;2022-10-24T09:22:16;9.13;;;3.15;;
11183;SDS011;5648;43.628;22.684;2022-10-24T09:24:46;6.03;;;3.28;;
11183;SDS011;5648;43.628;22.684;2022-10-24T09:27:22;6.57;;;2.75;;
11183;SDS011;5648;43.628;22.684;2022-10-24T09:29:51;9.45;;;4.47;;
11183;SDS011;5648;43.628;22.684;2022-10-24T09:32:18;89.63;;;8.05;;
11183;SDS011;5648;43.628;22.684;2022-10-24T09:34:46;7.38;;;3.70;;
11183;SDS011;5648;43.628;22.684;2022-10-24T09:37:27;6.63;;;2.90;;
11183;SDS011;5648;43.628;22.684;2022-10-24T09:40:11;3.95;;;2.70;;
11183;SDS011;5648;43.628;22.684;2022-10-24T09:42:37;5.72;;;2.70;;
11183;SDS011;5648;43.628;22.684;2022-10-24T09:45:16;5.70;;;3.00;;
11183;SDS011;5648;43.628;22.684;2022-10-24T09:50:56;8.57;;;3.33;;
11183;SDS011;5648;43.628;22.684;2022-10-24T09:53:28;5.60;;;3.20;;
11183;SDS011;5648;43.628;22.684;2022-10-24T09:55:58;7.38;;;3.10;;
11183;SDS011;5648;43.628;22.684;2022-10-24T09:58:27;9.82;;;3.20;;
11183;SDS011;5648;43.628;22.684;2022-10-24T10:01:04;6.05;;;3.00;;
11183;SDS011;5648;43.628;22.684;2022-10-24T10:03:31;8.48;;;2.83;;
11183;SDS011;5648;43.628;22.684;2022-10-24T10:05:58;6.88;;;3.72;;
11183;SDS011;5648;43.628;22.684;2022-10-24T10:08:32;8.27;;;3.00;;
11183;SDS011;5648;43.628;22.684;2022-10-24T10:13:25;7.05;;;2.38;;
11183;SDS011;5648;43.628;22.684;2022-10-24T10:15:53;8.88;;;2.50;;
11183;SDS011;5648;43.628;22.684;2022-10-24T10:21:14;5.13;;;2.47;;
11183;SDS011;5648;43.628;22.684;2022-10-24T10:23:43;3.80;;;2.45;;
11183;SDS011;5648;43.628;22.684;2022-10-24T10:26:15;4.50;;;2.10;;
11183;SDS011;5648;43.628;22.684;2022-10-24T10:31:18;3.22;;;2.17;;
11183;SDS011;5648;43.628;22.684;2022-10-24T10:34:21;5.65;;;2.67;;
11183;SDS011;5648;43.628;22.684;2022-10-24T10:41:58;3.75;;;2.25;;
11183;SDS011;5648;43.628;22.684;2022-10-24T10:49:59;13.73;;;3.58;;
11183;SDS011;5648;43.628;22.684;2022-10-24T11:09:02;5.40;;;2.42;;
11183;SDS011;5648;43.628;22.684;2022-10-24T11:12:06;7.03;;;2.58;;
11183;SDS011;5648;43.628;22.684;2022-10-24T11:14:40;4.40;;;2.47;;
11183;SDS011;5648;43.628;22.684;2022-10-24T11:17:13;63.58;;;7.90;;
11183;SDS011;5648;43.628;22.684;2022-10-24T11:19:55;8.60;;;3.60;;
11183;SDS011;5648;43.628;22.684;2022-10-24T11:22:33;5.13;;;2.20;;
11183;SDS011;5648;43.628;22.684;2022-10-24T11:25:07;13.35;;;3.17;;
11183;SDS011;5648;43.628;22.684;2022-10-24T11:27:46;4.72;;;2.42;;
11183;SDS011;5648;43.628;22.684;2022-10-24T11:30:38;6.75;;;2.40;;
11183;SDS011;5648;43.628;22.684;2022-10-24T11:33:11;13.50;;;2.97;;
11183;SDS011;5648;43.628;22.684;2022-10-24T11:35:50;22.70;;;4.05;;
11183;SDS011;5648;43.628;22.684;2022-10-24T11:38:25;23.95;;;4.15;;
11183;SDS011;5648;43.628;22.684;2022-10-24T11:40:54;4.95;;;2.78;;
11183;SDS011;5648;43.628;22.684;2022-10-24T11:43:35;5.28;;;2.50;;
11183;SDS011;5648;43.628;22.684;2022-10-24T11:46:18;3.72;;;2.45;;
11183;SDS011;5648;43.628;22.684;2022-10-24T11:48:59;15.80;;;3.33;;
11183;SDS011;5648;43.628;22.684;2022-10-24T11:51:41;7.00;;;2.70;;
11183;SDS011;5648;43.628;22.684;2022-10-24T11:54:29;5.80;;;2.75;;
11183;SDS011;5648;43.628;22.684;2022-10-24T11:57:12;5.50;;;2.40;;
11183;SDS011;5648;43.628;22.684;2022-10-24T11:59:44;4.22;;;2.30;;
11183;SDS011;5648;43.628;22.684;2022-10-24T12:05:13;6.45;;;2.42;;
11183;SDS011;5648;43.628;22.684;2022-10-24T12:10:26;8.95;;;2.67;;
11183;SDS011;5648;43.628;22.684;2022-10-24T12:20:54;5.30;;;2.65;;
11183;SDS011;5648;43.628;22.684;2022-10-24T12:23:25;24.95;;;3.85;;
11183;SDS011;5648;43.628;22.684;2022-10-24T12:26:02;5.65;;;2.47;;
11183;SDS011;5648;43.628;22.684;2022-10-24T12:28:29;4.35;;;2.35;;
11183;SDS011;5648;43.628;22.684;2022-10-24T12:33:38;5.65;;;2.40;;
11183;SDS011;5648;43.628;22.684;2022-10-24T12:36:03;9.95;;;2.60;;
11183;SDS011;5648;43.628;22.684;2022-10-24T12:41:01;4.90;;;2.58;;
11183;SDS011;5648;43.628;22.684;2022-10-24T12:51:31;3.42;;;2.53;;
11183;SDS011;5648;43.628;22.684;2022-10-24T12:53:59;12.93;;;2.70;;
11183;SDS011;5648;43.628;22.684;2022-10-24T12:56:26;10.90;;;3.10;;
11183;SDS011;5648;43.628;22.684;2022-10-24T12:58:56;10.50;;;2.10;;
11183;SDS011;5648;43.628;22.684;2022-10-24T13:01:25;3.85;;;2.33;;
11183;SDS011;5648;43.628;22.684;2022-10-24T13:17:20;8.57;;;5.55;;
11183;SDS011;5648;43.628;22.684;2022-10-24T13:20:01;25.88;;;9.40;;
11183;SDS011;5648;43.628;22.684;2022-10-24T13:22:45;16.50;;;11.63;;
11183;SDS011;5648;43.628;22.684;2022-10-24T13:25:28;14.98;;;11.68;;
11183;SDS011;5648;43.628;22.684;2022-10-24T13:30:45;18.75;;;13.43;;
11183;SDS011;5648;43.628;22.684;2022-10-24T13:41:37;20.08;;;14.20;;
11183;SDS011;5648;43.628;22.684;2022-10-24T13:44:19;17.08;;;12.55;;
11183;SDS011;5648;43.628;22.684;2022-10-24T13:47:15;17.83;;;13.10;;
11183;SDS011;5648;43.628;22.684;2022-10-24T13:49:51;17.67;;;11.30;;
11183;SDS011;5648;43.628;22.684;2022-10-24T13:55:41;11.18;;;9.32;;
11183;SDS011;5648;43.628;22.684;2022-10-24T13:57:58;12.57;;;8.15;;
11183;SDS011;5648;43.628;22.684;2022-10-24T14:00:28;8.77;;;6.82;;
11183;SDS011;5648;43.628;22.684;2022-10-24T14:02:56;10.60;;;6.60;;
11183;SDS011;5648;43.628;22.684;2022-10-24T14:05:34;12.90;;;6.35;;
11183;SDS011;5648;43.628;22.684;2022-10-24T14:08:04;7.18;;;5.90;;
11183;SDS011;5648;43.628;22.684;2022-10-24T14:10:33;11.45;;;6.45;;
11183;SDS011;5648;43.628;22.684;2022-10-24T14:12:59;29.80;;;6.13;;
11183;SDS011;5648;43.628;22.684;2022-10-24T14:15:26;7.43;;;5.30;;
11183;SDS011;5648;43.628;22.684;2022-10-24T14:20:30;11.43;;;5.25;;
11183;SDS011;5648;43.628;22.684;2022-10-24T14:22:57;5.20;;;4.07;;
11183;SDS011;5648;43.628;22.684;2022-10-24T14:25:32;9.80;;;4.55;;
11183;SDS011;5648;43.628;22.684;2022-10-24T14:28:02;6.72;;;4.28;;
11183;SDS011;5648;43.628;22.684;2022-10-24T14:30:43;11.95;;;4.22;;
11183;SDS011;5648;43.628;22.684;2022-10-24T14:33:25;9.82;;;4.93;;
11183;SDS011;5648;43.628;22.684;2022-10-24T14:35:53;10.30;;;3.75;;
11183;SDS011;5648;43.628;22.684;2022-10-24T14:38:20;11.82;;;4.00;;
11183;SDS011;5648;43.628;22.684;2022-10-24T14:40:48;7.35;;;4.00;;
11183;SDS011;5648;43.628;22.684;2022-10-24T14:43:18;4.90;;;3.13;;
11183;SDS011;5648;43.628;22.684;2022-10-24T14:48:29;5.10;;;3.72;;
11183;SDS011;5648;43.628;22.684;2022-10-24T14:51:00;6.65;;;3.40;;
11183;SDS011;5648;43.628;22.684;2022-10-24T14:53:28;12.77;;;4.10;;
11183;SDS011;5648;43.628;22.684;2022-10-24T14:55:55;5.88;;;3.75;;
11183;SDS011;5648;43.628;22.684;2022-10-24T14:58:24;10.50;;;3.63;;
11183;SDS011;5648;43.628;22.684;2022-10-24T15:00:52;10.13;;;3.75;;
11183;SDS011;5648;43.628;22.684;2022-10-24T15:03:19;20.15;;;5.07;;
11183;SDS011;5648;43.628;22.684;2022-10-24T15:05:55;17.77;;;4.75;;
11183;SDS011;5648;43.628;22.684;2022-10-24T15:08:24;12.30;;;5.03;;
11183;SDS011;5648;43.628;22.684;2022-10-24T15:13:46;9.05;;;5.30;;
11183;SDS011;5648;43.628;22.684;2022-10-24T15:16:41;5.93;;;3.50;;
11183;SDS011;5648;43.628;22.684;2022-10-24T15:19:09;6.78;;;3.63;;
11183;SDS011;5648;43.628;22.684;2022-10-24T15:21:39;6.45;;;3.45;;
11183;SDS011;5648;43.628;22.684;2022-10-24T15:24:15;6.72;;;4.20;;
11183;SDS011;5648;43.628;22.684;2022-10-24T15:26:49;7.88;;;3.95;;
11183;SDS011;5648;43.628;22.684;2022-10-24T15:29:19;6.28;;;4.10;;
11183;SDS011;5648;43.628;22.684;2022-10-24T15:31:48;6.72;;;4.60;;
11183;SDS011;5648;43.628;22.684;2022-10-24T15:34:16;5.75;;;3.47;;
11183;SDS011;5648;43.628;22.684;2022-10-24T15:36:43;7.25;;;3.67;;
11183;SDS011;5648;43.628;22.684;2022-10-24T15:39:12;16.63;;;5.10;;
11183;SDS011;5648;43.628;22.684;2022-10-24T15:41:40;8.00;;;4.07;;
11183;SDS011;5648;43.628;22.684;2022-10-24T15:46:46;8.77;;;4.57;;
11183;SDS011;5648;43.628;22.684;2022-10-24T15:49:13;6.28;;;4.60;;
11183;SDS011;5648;43.628;22.684;2022-10-24T15:51:40;9.90;;;6.55;;
11183;SDS011;5648;43.628;22.684;2022-10-24T15:54:10;35.72;;;8.45;;
11183;SDS011;5648;43.628;22.684;2022-10-24T15:56:36;11.48;;;8.07;;
11183;SDS011;5648;43.628;22.684;2022-10-24T15:59:02;12.25;;;7.88;;
11183;SDS011;5648;43.628;22.684;2022-10-24T16:01:31;12.25;;;8.02;;
11183;SDS011;5648;43.628;22.684;2022-10-24T16:04:00;10.85;;;6.60;;
11183;SDS011;5648;43.628;22.684;2022-10-24T16:06:51;13.90;;;6.07;;
11183;SDS011;5648;43.628;22.684;2022-10-24T16:09:42;8.18;;;6.00;;
11183;SDS011;5648;43.628;22.684;2022-10-24T16:12:09;19.52;;;10.63;;
11183;SDS011;5648;43.628;22.684;2022-10-24T16:14:36;10.85;;;9.75;;
11183;SDS011;5648;43.628;22.684;2022-10-24T16:17:01;8.80;;;6.78;;
11183;SDS011;5648;43.628;22.684;2022-10-24T16:19:27;14.18;;;8.65;;
11183;SDS011;5648;43.628;22.684;2022-10-24T16:21:53;17.55;;;11.80;;
11183;SDS011;5648;43.628;22.684;2022-10-24T16:24:22;10.30;;;7.75;;
11183;SDS011;5648;43.628;22.684;2022-10-24T16:26:51;7.15;;;6.22;;
11183;SDS011;5648;43.628;22.684;2022-10-24T16:29:16;7.18;;;6.05;;
11183;SDS011;5648;43.628;22.684;2022-10-24T16:31:42;11.38;;;8.35;;
11183;SDS011;5648;43.628;22.684;2022-10-24T16:34:09;8.30;;;5.72;;
11183;SDS011;5648;43.628;22.684;2022-10-24T16:36:35;19.52;;;8.18;;
11183;SDS011;5648;43.628;22.684;2022-10-24T16:39:00;16.70;;;12.13;;
11183;SDS011;5648;43.628;22.684;2022-10-24T16:41:27;14.20;;;7.75;;
11183;SDS011;5648;43.628;22.684;2022-10-24T16:43:53;12.07;;;7.47;;
11183;SDS011;5648;43.628;22.684;2022-10-24T16:46:20;15.82;;;9.48;;
11183;SDS011;5648;43.628;22.684;2022-10-24T16:48:46;10.27;;;6.85;;
11183;SDS011;5648;43.628;22.684;2022-10-24T16:51:14;13.95;;;8.93;;
11183;SDS011;5648;43.628;22.684;2022-10-24T16:53:41;12.90;;;6.53;;
11183;SDS011;5648;43.628;22.684;2022-10-24T16:56:08;12.68;;;7.10;;
11183;SDS011;5648;43.628;22.684;2022-10-24T16:58:34;11.18;;;6.75;;
11183;SDS011;5648;43.628;22.684;2022-10-24T17:01:01;12.13;;;6.47;;
11183;SDS011;5648;43.628;22.684;2022-10-24T17:03:28;23.58;;;7.05;;
11183;SDS011;5648;43.628;22.684;2022-10-24T17:05:54;10.65;;;5.70;;
11183;SDS011;5648;43.628;22.684;2022-10-24T17:08:19;9.98;;;5.40;;
11183;SDS011;5648;43.628;22.684;2022-10-24T17:10:45;9.20;;;5.10;;